sensor_id;sensor_type;location;lat;lon;timestamp;temperature;humidity
13231;DHT22;6681;53.254;10.398;2023-05-10T00:00:08;14.20;1.00
13231;DHT22;6681;53.254;10.398;2023-05-10T00:02:34;14.10;1.00
13231;DHT22;6681;53.254;10.398;2023-05-10T00:05:00;14.10;1.00
13231;DHT22;6681;53.254;10.398;2023-05-10T00:07:26;14.10;1.00
13231;DHT22;6681;53.254;10.398;2023-05-10T00:09:52;14.10;1.00
13231;DHT22;6681;53.254;10.398;2023-05-10T00:12:18;14.10;1.00
13231;DHT22;6681;53.254;10.398;2023-05-10T00:14:43;14.10;1.00
13231;DHT22;6681;53.254;10.398;2023-05-10T00:17:09;14.00;1.00
13231;DHT22;6681;53.254;10.398;2023-05-10T00:19:35;14.00;1.00
13231;DHT22;6681;53.254;10.398;2023-05-10T00:22:00;14.00;1.00
13231;DHT22;6681;53.254;10.398;2023-05-10T00:24:26;14.00;1.00
13231;DHT22;6681;53.254;10.398;2023-05-10T00:26:51;14.00;1.00
13231;DHT22;6681;53.254;10.398;2023-05-10T00:29:17;13.90;1.00
13231;DHT22;6681;53.254;10.398;2023-05-10T00:31:43;13.90;1.00
13231;DHT22;6681;53.254;10.398;2023-05-10T00:34:09;13.90;1.00
13231;DHT22;6681;53.254;10.398;2023-05-10T00:36:34;13.90;1.00
13231;DHT22;6681;53.254;10.398;2023-05-10T00:39:00;13.80;1.00
13231;DHT22;6681;53.254;10.398;2023-05-10T00:41:26;13.80;1.00
13231;DHT22;6681;53.254;10.398;2023-05-10T00:43:51;13.70;13.70
13231;DHT22;6681;53.254;10.398;2023-05-10T00:46:17;13.70;25.90
13231;DHT22;6681;53.254;10.398;2023-05-10T00:48:44;13.70;94.60
13231;DHT22;6681;53.254;10.398;2023-05-10T00:51:10;13.70;70.80
13231;DHT22;6681;53.254;10.398;2023-05-10T00:53:36;13.60;99.90
13231;DHT22;6681;53.254;10.398;2023-05-10T00:56:02;13.60;99.90
13231;DHT22;6681;53.254;10.398;2023-05-10T00:58:28;13.60;99.90
13231;DHT22;6681;53.254;10.398;2023-05-10T01:00:56;13.60;99.90
13231;DHT22;6681;53.254;10.398;2023-05-10T01:03:23;13.50;99.90
13231;DHT22;6681;53.254;10.398;2023-05-10T01:05:49;13.50;99.90
13231;DHT22;6681;53.254;10.398;2023-05-10T01:08:15;13.40;99.90
13231;DHT22;6681;53.254;10.398;2023-05-10T01:10:41;13.40;99.90
13231;DHT22;6681;53.254;10.398;2023-05-10T01:13:08;13.40;99.90
13231;DHT22;6681;53.254;10.398;2023-05-10T01:15:34;13.40;1.00
13231;DHT22;6681;53.254;10.398;2023-05-10T01:18:02;13.40;1.00
13231;DHT22;6681;53.254;10.398;2023-05-10T01:20:35;13.40;1.00
13231;DHT22;6681;53.254;10.398;2023-05-10T01:23:30;13.40;1.00
13231;DHT22;6681;53.254;10.398;2023-05-10T01:31:58;13.30;1.00
13231;DHT22;6681;53.254;10.398;2023-05-10T01:34:29;13.30;1.00
13231;DHT22;6681;53.254;10.398;2023-05-10T01:37:09;13.20;1.00
13231;DHT22;6681;53.254;10.398;2023-05-10T01:39:49;13.20;1.00
13231;DHT22;6681;53.254;10.398;2023-05-10T01:42:25;13.20;1.00
13231;DHT22;6681;53.254;10.398;2023-05-10T01:45:39;13.10;1.00
13231;DHT22;6681;53.254;10.398;2023-05-10T01:48:09;13.10;1.00
13231;DHT22;6681;53.254;10.398;2023-05-10T01:50:37;13.00;1.00
13231;DHT22;6681;53.254;10.398;2023-05-10T01:53:06;13.00;1.00
13231;DHT22;6681;53.254;10.398;2023-05-10T01:55:35;13.00;1.00
13231;DHT22;6681;53.254;10.398;2023-05-10T01:58:08;13.00;98.90
13231;DHT22;6681;53.254;10.398;2023-05-10T02:00:35;13.00;75.60
13231;DHT22;6681;53.254;10.398;2023-05-10T02:03:06;13.00;1.00
13231;DHT22;6681;53.254;10.398;2023-05-10T02:05:33;12.90;99.90
13231;DHT22;6681;53.254;10.398;2023-05-10T02:08:00;12.80;99.90
13231;DHT22;6681;53.254;10.398;2023-05-10T02:10:28;12.80;99.90
13231;DHT22;6681;53.254;10.398;2023-05-10T02:12:55;12.80;99.90
13231;DHT22;6681;53.254;10.398;2023-05-10T02:15:24;12.80;1.00
13231;DHT22;6681;53.254;10.398;2023-05-10T02:17:54;12.70;1.00
13231;DHT22;6681;53.254;10.398;2023-05-10T02:20:22;12.70;99.90
13231;DHT22;6681;53.254;10.398;2023-05-10T02:22:50;12.70;1.00
13231;DHT22;6681;53.254;10.398;2023-05-10T02:25:18;12.70;99.90
13231;DHT22;6681;53.254;10.398;2023-05-10T02:27:45;12.70;1.00
13231;DHT22;6681;53.254;10.398;2023-05-10T02:30:12;12.60;1.00
13231;DHT22;6681;53.254;10.398;2023-05-10T02:32:38;12.60;1.00
13231;DHT22;6681;53.254;10.398;2023-05-10T02:35:05;12.60;1.00
13231;DHT22;6681;53.254;10.398;2023-05-10T02:37:31;12.50;1.00
13231;DHT22;6681;53.254;10.398;2023-05-10T02:39:58;12.50;99.90
13231;DHT22;6681;53.254;10.398;2023-05-10T02:42:29;12.50;1.00
13231;DHT22;6681;53.254;10.398;2023-05-10T02:45:00;12.50;1.00
13231;DHT22;6681;53.254;10.398;2023-05-10T02:47:27;12.50;1.00
13231;DHT22;6681;53.254;10.398;2023-05-10T02:49:53;12.40;99.90
13231;DHT22;6681;53.254;10.398;2023-05-10T02:52:25;12.40;99.90
13231;DHT22;6681;53.254;10.398;2023-05-10T02:54:55;12.30;99.90
13231;DHT22;6681;53.254;10.398;2023-05-10T02:57:33;12.30;99.90
13231;DHT22;6681;53.254;10.398;2023-05-10T03:00:00;12.30;99.90
13231;DHT22;6681;53.254;10.398;2023-05-10T03:02:26;12.30;99.90
13231;DHT22;6681;53.254;10.398;2023-05-10T03:04:52;12.30;99.90
13231;DHT22;6681;53.254;10.398;2023-05-10T03:07:18;12.20;99.90
13231;DHT22;6681;53.254;10.398;2023-05-10T03:09:47;12.20;99.90
13231;DHT22;6681;53.254;10.398;2023-05-10T03:12:47;12.30;1.00
13231;DHT22;6681;53.254;10.398;2023-05-10T03:17:56;12.20;1.00
13231;DHT22;6681;53.254;10.398;2023-05-10T03:20:36;12.10;1.00
13231;DHT22;6681;53.254;10.398;2023-05-10T03:25:58;12.10;1.00
13231;DHT22;6681;53.254;10.398;2023-05-10T03:28:26;12.10;1.00
13231;DHT22;6681;53.254;10.398;2023-05-10T03:30:55;12.10;1.00
13231;DHT22;6681;53.254;10.398;2023-05-10T03:33:21;12.10;1.00
13231;DHT22;6681;53.254;10.398;2023-05-10T03:35:47;12.10;1.00
13231;DHT22;6681;53.254;10.398;2023-05-10T03:38:13;12.10;1.00
13231;DHT22;6681;53.254;10.398;2023-05-10T03:40:39;12.10;1.00
13231;DHT22;6681;53.254;10.398;2023-05-10T03:43:05;12.10;1.00
13231;DHT22;6681;53.254;10.398;2023-05-10T03:45:30;12.00;37.80
13231;DHT22;6681;53.254;10.398;2023-05-10T03:47:57;12.10;1.00
13231;DHT22;6681;53.254;10.398;2023-05-10T03:50:23;12.00;99.90
13231;DHT22;6681;53.254;10.398;2023-05-10T03:52:49;12.00;99.90
13231;DHT22;6681;53.254;10.398;2023-05-10T03:55:15;12.00;99.90
13231;DHT22;6681;53.254;10.398;2023-05-10T03:57:41;12.00;69.70
13231;DHT22;6681;53.254;10.398;2023-05-10T04:00:08;12.00;99.90
13231;DHT22;6681;53.254;10.398;2023-05-10T04:02:34;12.00;99.90
13231;DHT22;6681;53.254;10.398;2023-05-10T04:04:59;12.10;99.90
13231;DHT22;6681;53.254;10.398;2023-05-10T04:07:25;12.00;99.90
13231;DHT22;6681;53.254;10.398;2023-05-10T04:09:51;11.90;99.90
13231;DHT22;6681;53.254;10.398;2023-05-10T04:12:17;11.90;99.90
13231;DHT22;6681;53.254;10.398;2023-05-10T04:14:43;11.90;99.90
13231;DHT22;6681;53.254;10.398;2023-05-10T04:17:08;11.90;1.00
13231;DHT22;6681;53.254;10.398;2023-05-10T04:19:34;9.80;1.00
13231;DHT22;6681;53.254;10.398;2023-05-10T04:22:00;11.90;1.00
13231;DHT22;6681;53.254;10.398;2023-05-10T04:24:27;11.90;1.00
13231;DHT22;6681;53.254;10.398;2023-05-10T04:26:54;11.90;1.00
13231;DHT22;6681;53.254;10.398;2023-05-10T04:29:20;11.90;1.00
13231;DHT22;6681;53.254;10.398;2023-05-10T04:31:46;11.90;1.00
13231;DHT22;6681;53.254;10.398;2023-05-10T04:34:11;11.90;99.90
13231;DHT22;6681;53.254;10.398;2023-05-10T04:36:37;11.80;1.00
13231;DHT22;6681;53.254;10.398;2023-05-10T04:39:03;11.80;1.00
13231;DHT22;6681;53.254;10.398;2023-05-10T04:41:29;11.90;1.00
13231;DHT22;6681;53.254;10.398;2023-05-10T04:43:55;11.80;1.00
13231;DHT22;6681;53.254;10.398;2023-05-10T04:46:21;11.90;1.00
13231;DHT22;6681;53.254;10.398;2023-05-10T04:48:47;11.90;1.00
13231;DHT22;6681;53.254;10.398;2023-05-10T04:51:12;11.90;1.00
13231;DHT22;6681;53.254;10.398;2023-05-10T04:53:38;11.90;1.00
13231;DHT22;6681;53.254;10.398;2023-05-10T04:56:04;12.00;1.00
13231;DHT22;6681;53.254;10.398;2023-05-10T04:58:30;12.00;1.00
13231;DHT22;6681;53.254;10.398;2023-05-10T05:00:55;12.10;1.00
13231;DHT22;6681;53.254;10.398;2023-05-10T05:03:21;12.00;1.00
13231;DHT22;6681;53.254;10.398;2023-05-10T05:05:47;12.00;99.90
13231;DHT22;6681;53.254;10.398;2023-05-10T05:08:13;12.00;1.00
13231;DHT22;6681;53.254;10.398;2023-05-10T05:10:39;12.00;1.00
13231;DHT22;6681;53.254;10.398;2023-05-10T05:13:04;12.10;99.90
13231;DHT22;6681;53.254;10.398;2023-05-10T05:15:30;12.20;1.00
13231;DHT22;6681;53.254;10.398;2023-05-10T05:17:56;12.20;99.90
13231;DHT22;6681;53.254;10.398;2023-05-10T05:20:21;12.30;1.00
13231;DHT22;6681;53.254;10.398;2023-05-10T05:22:47;12.30;99.90
13231;DHT22;6681;53.254;10.398;2023-05-10T05:25:13;12.40;99.90
13231;DHT22;6681;53.254;10.398;2023-05-10T05:27:39;12.50;99.90
13231;DHT22;6681;53.254;10.398;2023-05-10T05:30:05;12.50;1.00
13231;DHT22;6681;53.254;10.398;2023-05-10T05:32:31;12.50;99.90
13231;DHT22;6681;53.254;10.398;2023-05-10T05:34:57;12.60;99.90
13231;DHT22;6681;53.254;10.398;2023-05-10T05:37:23;12.60;99.90
13231;DHT22;6681;53.254;10.398;2023-05-10T05:39:49;12.70;1.00
13231;DHT22;6681;53.254;10.398;2023-05-10T05:42:15;12.80;1.00
13231;DHT22;6681;53.254;10.398;2023-05-10T05:44:43;12.80;1.00
13231;DHT22;6681;53.254;10.398;2023-05-10T05:47:09;12.80;78.00
13231;DHT22;6681;53.254;10.398;2023-05-10T05:49:34;12.90;99.90
13231;DHT22;6681;53.254;10.398;2023-05-10T05:52:03;12.90;1.00
13231;DHT22;6681;53.254;10.398;2023-05-10T05:54:30;13.00;1.00
13231;DHT22;6681;53.254;10.398;2023-05-10T05:56:59;13.10;22.60
13231;DHT22;6681;53.254;10.398;2023-05-10T05:59:26;13.20;99.90
13231;DHT22;6681;53.254;10.398;2023-05-10T06:01:51;13.20;99.90
13231;DHT22;6681;53.254;10.398;2023-05-10T06:04:17;13.20;99.90
13231;DHT22;6681;53.254;10.398;2023-05-10T06:06:43;13.20;1.00
13231;DHT22;6681;53.254;10.398;2023-05-10T06:09:09;13.30;1.00
13231;DHT22;6681;53.254;10.398;2023-05-10T06:11:35;13.40;99.90
13231;DHT22;6681;53.254;10.398;2023-05-10T06:14:02;13.40;99.90
13231;DHT22;6681;53.254;10.398;2023-05-10T06:16:29;13.50;1.00
13231;DHT22;6681;53.254;10.398;2023-05-10T06:18:54;13.60;99.90
13231;DHT22;6681;53.254;10.398;2023-05-10T06:21:20;13.70;99.90
13231;DHT22;6681;53.254;10.398;2023-05-10T06:23:46;13.80;1.00
13231;DHT22;6681;53.254;10.398;2023-05-10T06:26:12;13.90;99.90
13231;DHT22;6681;53.254;10.398;2023-05-10T06:28:39;14.00;99.90
13231;DHT22;6681;53.254;10.398;2023-05-10T06:31:05;14.10;1.00
13231;DHT22;6681;53.254;10.398;2023-05-10T06:33:31;14.20;1.00
13231;DHT22;6681;53.254;10.398;2023-05-10T06:35:57;14.20;99.90
13231;DHT22;6681;53.254;10.398;2023-05-10T06:38:23;14.20;99.90
13231;DHT22;6681;53.254;10.398;2023-05-10T06:40:49;14.20;99.90
13231;DHT22;6681;53.254;10.398;2023-05-10T06:43:14;14.20;1.00
13231;DHT22;6681;53.254;10.398;2023-05-10T06:45:40;14.30;1.00
13231;DHT22;6681;53.254;10.398;2023-05-10T06:48:06;14.30;99.90
13231;DHT22;6681;53.254;10.398;2023-05-10T06:50:32;14.30;99.90
13231;DHT22;6681;53.254;10.398;2023-05-10T06:52:58;14.40;1.00
13231;DHT22;6681;53.254;10.398;2023-05-10T06:55:24;14.40;99.90
13231;DHT22;6681;53.254;10.398;2023-05-10T06:57:50;14.50;99.90
13231;DHT22;6681;53.254;10.398;2023-05-10T07:00:16;14.60;99.90
13231;DHT22;6681;53.254;10.398;2023-05-10T07:02:42;14.60;99.90
13231;DHT22;6681;53.254;10.398;2023-05-10T07:05:09;14.60;99.90
13231;DHT22;6681;53.254;10.398;2023-05-10T07:07:34;14.70;59.70
13231;DHT22;6681;53.254;10.398;2023-05-10T07:10:00;14.80;1.00
13231;DHT22;6681;53.254;10.398;2023-05-10T07:12:26;14.80;1.00
13231;DHT22;6681;53.254;10.398;2023-05-10T07:14:51;14.80;30.70
13231;DHT22;6681;53.254;10.398;2023-05-10T07:17:17;14.80;1.00
13231;DHT22;6681;53.254;10.398;2023-05-10T07:19:43;14.90;99.90
13231;DHT22;6681;53.254;10.398;2023-05-10T07:22:09;14.80;1.00
13231;DHT22;6681;53.254;10.398;2023-05-10T07:24:34;14.80;1.00
13231;DHT22;6681;53.254;10.398;2023-05-10T07:27:00;14.90;1.00
13231;DHT22;6681;53.254;10.398;2023-05-10T07:29:26;15.00;99.90
13231;DHT22;6681;53.254;10.398;2023-05-10T07:31:52;15.10;1.00
13231;DHT22;6681;53.254;10.398;2023-05-10T07:34:18;15.30;99.90
13231;DHT22;6681;53.254;10.398;2023-05-10T07:36:43;15.40;1.00
13231;DHT22;6681;53.254;10.398;2023-05-10T07:39:12;15.40;1.00
13231;DHT22;6681;53.254;10.398;2023-05-10T07:41:38;15.40;1.00
13231;DHT22;6681;53.254;10.398;2023-05-10T07:44:04;15.30;99.90
13231;DHT22;6681;53.254;10.398;2023-05-10T07:46:30;15.40;1.00
13231;DHT22;6681;53.254;10.398;2023-05-10T07:48:56;17.40;1.00
13231;DHT22;6681;53.254;10.398;2023-05-10T07:51:21;15.40;99.90
13231;DHT22;6681;53.254;10.398;2023-05-10T07:53:47;15.40;1.00
13231;DHT22;6681;53.254;10.398;2023-05-10T07:56:23;15.50;1.00
13231;DHT22;6681;53.254;10.398;2023-05-10T07:58:50;15.40;1.00
13231;DHT22;6681;53.254;10.398;2023-05-10T08:01:16;15.50;16.40
13231;DHT22;6681;53.254;10.398;2023-05-10T08:03:42;15.60;85.30
13231;DHT22;6681;53.254;10.398;2023-05-10T08:06:07;15.70;87.70
13231;DHT22;6681;53.254;10.398;2023-05-10T08:08:33;15.70;1.00
13231;DHT22;6681;53.254;10.398;2023-05-10T08:10:58;15.80;99.90
13231;DHT22;6681;53.254;10.398;2023-05-10T08:13:24;16.00;1.00
13231;DHT22;6681;53.254;10.398;2023-05-10T08:15:50;16.00;99.90
13231;DHT22;6681;53.254;10.398;2023-05-10T08:18:18;16.10;1.00
13231;DHT22;6681;53.254;10.398;2023-05-10T08:20:44;16.00;1.00
13231;DHT22;6681;53.254;10.398;2023-05-10T08:23:09;16.10;1.00
13231;DHT22;6681;53.254;10.398;2023-05-10T08:25:35;16.10;1.00
13231;DHT22;6681;53.254;10.398;2023-05-10T08:28:00;16.10;54.80
13231;DHT22;6681;53.254;10.398;2023-05-10T08:30:26;16.20;99.90
13231;DHT22;6681;53.254;10.398;2023-05-10T08:32:52;16.20;1.00
13231;DHT22;6681;53.254;10.398;2023-05-10T08:35:17;16.30;1.00
13231;DHT22;6681;53.254;10.398;2023-05-10T08:37:43;16.40;1.00
13231;DHT22;6681;53.254;10.398;2023-05-10T08:40:11;16.30;1.00
13231;DHT22;6681;53.254;10.398;2023-05-10T08:42:40;16.30;1.00
13231;DHT22;6681;53.254;10.398;2023-05-10T08:45:07;16.20;99.90
13231;DHT22;6681;53.254;10.398;2023-05-10T08:47:36;15.90;1.00
13231;DHT22;6681;53.254;10.398;2023-05-10T08:50:03;15.90;1.00
13231;DHT22;6681;53.254;10.398;2023-05-10T08:52:30;15.70;1.00
13231;DHT22;6681;53.254;10.398;2023-05-10T08:54:58;15.60;1.00
13231;DHT22;6681;53.254;10.398;2023-05-10T08:57:24;15.60;1.00
13231;DHT22;6681;53.254;10.398;2023-05-10T08:59:50;15.70;1.00
13231;DHT22;6681;53.254;10.398;2023-05-10T09:02:17;15.70;1.00
13231;DHT22;6681;53.254;10.398;2023-05-10T09:04:43;15.80;1.00
13231;DHT22;6681;53.254;10.398;2023-05-10T09:07:10;15.80;1.00
13231;DHT22;6681;53.254;10.398;2023-05-10T09:09:36;15.80;1.00
13231;DHT22;6681;53.254;10.398;2023-05-10T09:12:02;15.70;1.00
13231;DHT22;6681;53.254;10.398;2023-05-10T09:14:29;15.70;1.00
13231;DHT22;6681;53.254;10.398;2023-05-10T09:16:55;15.70;91.70
13231;DHT22;6681;53.254;10.398;2023-05-10T09:19:21;15.80;55.20
13231;DHT22;6681;53.254;10.398;2023-05-10T09:21:47;15.90;99.90
13231;DHT22;6681;53.254;10.398;2023-05-10T09:24:14;15.90;1.00
13231;DHT22;6681;53.254;10.398;2023-05-10T09:26:47;15.90;99.90
13231;DHT22;6681;53.254;10.398;2023-05-10T09:29:16;15.90;99.90
13231;DHT22;6681;53.254;10.398;2023-05-10T09:31:47;15.90;1.00
13231;DHT22;6681;53.254;10.398;2023-05-10T09:34:31;16.00;1.00
13231;DHT22;6681;53.254;10.398;2023-05-10T09:37:01;16.10;99.90
13231;DHT22;6681;53.254;10.398;2023-05-10T09:39:36;16.20;79.40
13231;DHT22;6681;53.254;10.398;2023-05-10T09:42:04;16.20;99.90
13231;DHT22;6681;53.254;10.398;2023-05-10T09:44:32;16.10;59.80
13231;DHT22;6681;53.254;10.398;2023-05-10T09:46:59;16.10;99.90
13231;DHT22;6681;53.254;10.398;2023-05-10T09:49:25;16.20;99.90
13231;DHT22;6681;53.254;10.398;2023-05-10T09:52:00;16.10;99.90
13231;DHT22;6681;53.254;10.398;2023-05-10T09:54:26;16.00;1.00
13231;DHT22;6681;53.254;10.398;2023-05-10T09:56:52;15.90;99.90
13231;DHT22;6681;53.254;10.398;2023-05-10T09:59:18;15.90;99.90
13231;DHT22;6681;53.254;10.398;2023-05-10T10:01:49;15.90;1.00
13231;DHT22;6681;53.254;10.398;2023-05-10T10:04:15;15.90;1.00
13231;DHT22;6681;53.254;10.398;2023-05-10T10:06:41;15.90;99.90
13231;DHT22;6681;53.254;10.398;2023-05-10T10:09:08;15.80;1.00
13231;DHT22;6681;53.254;10.398;2023-05-10T10:11:37;15.90;1.00
13231;DHT22;6681;53.254;10.398;2023-05-10T10:14:04;15.80;1.00
13231;DHT22;6681;53.254;10.398;2023-05-10T10:16:31;15.90;1.00
13231;DHT22;6681;53.254;10.398;2023-05-10T10:18:57;15.90;1.00
13231;DHT22;6681;53.254;10.398;2023-05-10T10:21:23;15.80;1.00
13231;DHT22;6681;53.254;10.398;2023-05-10T10:23:49;15.80;99.90
13231;DHT22;6681;53.254;10.398;2023-05-10T10:26:17;15.80;99.90
13231;DHT22;6681;53.254;10.398;2023-05-10T10:31:51;15.60;99.90
13231;DHT22;6681;53.254;10.398;2023-05-10T10:34:27;15.50;1.00
13231;DHT22;6681;53.254;10.398;2023-05-10T10:36:54;15.30;1.00
13231;DHT22;6681;53.254;10.398;2023-05-10T10:39:20;15.10;1.00
13231;DHT22;6681;53.254;10.398;2023-05-10T10:41:57;15.10;1.00
13231;DHT22;6681;53.254;10.398;2023-05-10T10:52:17;15.00;1.00
13231;DHT22;6681;53.254;10.398;2023-05-10T10:57:19;14.90;1.00
13231;DHT22;6681;53.254;10.398;2023-05-10T10:59:47;14.90;1.00
13231;DHT22;6681;53.254;10.398;2023-05-10T11:07:57;14.70;1.00
13231;DHT22;6681;53.254;10.398;2023-05-10T11:10:24;14.80;1.00
13231;DHT22;6681;53.254;10.398;2023-05-10T11:13:04;14.70;1.00
13231;DHT22;6681;53.254;10.398;2023-05-10T11:15:39;14.80;1.00
13231;DHT22;6681;53.254;10.398;2023-05-10T11:18:40;14.90;1.00
13231;DHT22;6681;53.254;10.398;2023-05-10T11:21:09;15.00;1.00
13231;DHT22;6681;53.254;10.398;2023-05-10T11:26:16;14.90;1.00
13231;DHT22;6681;53.254;10.398;2023-05-10T11:28:47;14.90;1.00
13231;DHT22;6681;53.254;10.398;2023-05-10T11:31:15;14.90;1.00
13231;DHT22;6681;53.254;10.398;2023-05-10T11:33:48;14.80;1.00
13231;DHT22;6681;53.254;10.398;2023-05-10T11:36:15;14.90;1.00
13231;DHT22;6681;53.254;10.398;2023-05-10T11:38:42;15.00;1.00
13231;DHT22;6681;53.254;10.398;2023-05-10T11:41:11;15.10;1.00
13231;DHT22;6681;53.254;10.398;2023-05-10T11:43:39;15.20;1.00
13231;DHT22;6681;53.254;10.398;2023-05-10T11:46:10;15.40;1.00
13231;DHT22;6681;53.254;10.398;2023-05-10T11:48:39;15.40;1.00
13231;DHT22;6681;53.254;10.398;2023-05-10T11:51:10;15.40;1.00
13231;DHT22;6681;53.254;10.398;2023-05-10T11:53:36;15.40;1.00
13231;DHT22;6681;53.254;10.398;2023-05-10T11:56:11;15.40;1.00
13231;DHT22;6681;53.254;10.398;2023-05-10T11:58:38;15.50;1.00
13231;DHT22;6681;53.254;10.398;2023-05-10T12:01:05;15.50;1.00
13231;DHT22;6681;53.254;10.398;2023-05-10T12:03:31;15.50;1.00
13231;DHT22;6681;53.254;10.398;2023-05-10T12:05:57;15.30;1.00
13231;DHT22;6681;53.254;10.398;2023-05-10T12:08:26;15.40;1.00
13231;DHT22;6681;53.254;10.398;2023-05-10T12:10:52;15.20;1.00
13231;DHT22;6681;53.254;10.398;2023-05-10T12:13:19;15.20;1.00
13231;DHT22;6681;53.254;10.398;2023-05-10T12:15:46;15.20;1.00
13231;DHT22;6681;53.254;10.398;2023-05-10T12:18:22;15.30;1.00
13231;DHT22;6681;53.254;10.398;2023-05-10T12:20:52;15.30;1.00
13231;DHT22;6681;53.254;10.398;2023-05-10T12:23:20;15.40;1.00
13231;DHT22;6681;53.254;10.398;2023-05-10T12:25:46;15.50;1.00
13231;DHT22;6681;53.254;10.398;2023-05-10T12:28:12;15.40;1.00
13231;DHT22;6681;53.254;10.398;2023-05-10T12:30:38;15.40;1.00
13231;DHT22;6681;53.254;10.398;2023-05-10T12:33:10;15.50;1.00
13231;DHT22;6681;53.254;10.398;2023-05-10T12:35:47;15.60;1.00
13231;DHT22;6681;53.254;10.398;2023-05-10T12:38:33;15.70;1.00
13231;DHT22;6681;53.254;10.398;2023-05-10T12:41:01;15.80;1.00
13231;DHT22;6681;53.254;10.398;2023-05-10T12:43:27;15.80;1.00
13231;DHT22;6681;53.254;10.398;2023-05-10T12:45:53;15.80;1.00
13231;DHT22;6681;53.254;10.398;2023-05-10T12:48:18;15.80;1.00
13231;DHT22;6681;53.254;10.398;2023-05-10T12:50:45;15.90;1.00
13231;DHT22;6681;53.254;10.398;2023-05-10T12:53:10;16.00;1.00
13231;DHT22;6681;53.254;10.398;2023-05-10T12:55:36;16.10;1.00
13231;DHT22;6681;53.254;10.398;2023-05-10T12:58:02;16.20;1.00
13231;DHT22;6681;53.254;10.398;2023-05-10T13:00:27;16.10;1.00
13231;DHT22;6681;53.254;10.398;2023-05-10T13:02:53;16.20;1.00
13231;DHT22;6681;53.254;10.398;2023-05-10T13:05:19;16.30;1.00
13231;DHT22;6681;53.254;10.398;2023-05-10T13:07:44;16.40;1.00
13231;DHT22;6681;53.254;10.398;2023-05-10T13:10:10;16.40;1.00
13231;DHT22;6681;53.254;10.398;2023-05-10T13:12:36;16.30;1.00
13231;DHT22;6681;53.254;10.398;2023-05-10T13:15:02;16.40;1.00
13231;DHT22;6681;53.254;10.398;2023-05-10T13:17:28;16.40;1.00
13231;DHT22;6681;53.254;10.398;2023-05-10T13:19:54;16.50;1.00
13231;DHT22;6681;53.254;10.398;2023-05-10T13:22:20;16.60;1.00
13231;DHT22;6681;53.254;10.398;2023-05-10T13:24:48;16.60;1.00
13231;DHT22;6681;53.254;10.398;2023-05-10T13:27:13;16.70;1.00
13231;DHT22;6681;53.254;10.398;2023-05-10T13:29:40;16.70;1.00
13231;DHT22;6681;53.254;10.398;2023-05-10T13:32:06;16.70;1.00
13231;DHT22;6681;53.254;10.398;2023-05-10T13:34:32;16.70;1.00
13231;DHT22;6681;53.254;10.398;2023-05-10T13:36:57;16.70;1.00
13231;DHT22;6681;53.254;10.398;2023-05-10T13:39:23;16.70;1.00
13231;DHT22;6681;53.254;10.398;2023-05-10T13:41:49;16.70;1.00
13231;DHT22;6681;53.254;10.398;2023-05-10T13:44:14;16.60;1.00
13231;DHT22;6681;53.254;10.398;2023-05-10T13:46:41;16.50;1.00
13231;DHT22;6681;53.254;10.398;2023-05-10T13:49:08;16.50;1.00
13231;DHT22;6681;53.254;10.398;2023-05-10T13:51:35;16.60;1.00
13231;DHT22;6681;53.254;10.398;2023-05-10T13:54:01;16.70;1.00
13231;DHT22;6681;53.254;10.398;2023-05-10T13:56:27;16.70;1.00
13231;DHT22;6681;53.254;10.398;2023-05-10T13:58:53;16.50;1.00
13231;DHT22;6681;53.254;10.398;2023-05-10T14:01:19;16.70;1.00
13231;DHT22;6681;53.254;10.398;2023-05-10T14:03:44;16.70;1.00
13231;DHT22;6681;53.254;10.398;2023-05-10T14:06:10;16.70;1.00
13231;DHT22;6681;53.254;10.398;2023-05-10T14:08:36;16.90;1.00
13231;DHT22;6681;53.254;10.398;2023-05-10T14:11:02;17.00;1.00
13231;DHT22;6681;53.254;10.398;2023-05-10T14:13:27;17.10;1.00
13231;DHT22;6681;53.254;10.398;2023-05-10T14:15:54;17.10;1.00
13231;DHT22;6681;53.254;10.398;2023-05-10T14:18:20;17.10;1.00
13231;DHT22;6681;53.254;10.398;2023-05-10T14:20:46;17.30;1.00
13231;DHT22;6681;53.254;10.398;2023-05-10T14:23:12;17.20;1.00
13231;DHT22;6681;53.254;10.398;2023-05-10T14:25:39;17.30;1.00
13231;DHT22;6681;53.254;10.398;2023-05-10T14:28:05;17.20;1.00
13231;DHT22;6681;53.254;10.398;2023-05-10T14:30:31;17.00;1.00
13231;DHT22;6681;53.254;10.398;2023-05-10T14:33:00;17.10;1.00
13231;DHT22;6681;53.254;10.398;2023-05-10T14:35:27;17.10;1.00
13231;DHT22;6681;53.254;10.398;2023-05-10T14:37:52;17.10;1.00
13231;DHT22;6681;53.254;10.398;2023-05-10T14:40:18;17.10;1.00
13231;DHT22;6681;53.254;10.398;2023-05-10T14:42:44;17.10;1.00
13231;DHT22;6681;53.254;10.398;2023-05-10T14:45:10;17.20;1.00
13231;DHT22;6681;53.254;10.398;2023-05-10T14:47:36;17.30;1.00
13231;DHT22;6681;53.254;10.398;2023-05-10T14:50:02;17.30;1.00
13231;DHT22;6681;53.254;10.398;2023-05-10T14:52:27;17.40;1.00
13231;DHT22;6681;53.254;10.398;2023-05-10T14:54:53;17.60;1.00
13231;DHT22;6681;53.254;10.398;2023-05-10T14:57:19;17.70;1.00
13231;DHT22;6681;53.254;10.398;2023-05-10T14:59:44;17.80;1.00
13231;DHT22;6681;53.254;10.398;2023-05-10T15:02:10;17.90;1.00
13231;DHT22;6681;53.254;10.398;2023-05-10T15:04:36;17.80;1.00
13231;DHT22;6681;53.254;10.398;2023-05-10T15:07:02;17.90;1.00
13231;DHT22;6681;53.254;10.398;2023-05-10T15:09:28;18.00;1.00
13231;DHT22;6681;53.254;10.398;2023-05-10T15:11:54;17.90;1.00
13231;DHT22;6681;53.254;10.398;2023-05-10T15:14:20;17.90;1.00
13231;DHT22;6681;53.254;10.398;2023-05-10T15:16:45;18.40;1.00
13231;DHT22;6681;53.254;10.398;2023-05-10T15:19:12;18.00;1.00
13231;DHT22;6681;53.254;10.398;2023-05-10T15:21:37;18.00;1.00
13231;DHT22;6681;53.254;10.398;2023-05-10T15:24:07;18.00;1.00
13231;DHT22;6681;53.254;10.398;2023-05-10T15:26:33;17.80;1.00
13231;DHT22;6681;53.254;10.398;2023-05-10T15:28:59;17.70;1.00
13231;DHT22;6681;53.254;10.398;2023-05-10T15:31:24;17.50;1.00
13231;DHT22;6681;53.254;10.398;2023-05-10T15:33:50;17.50;1.00
13231;DHT22;6681;53.254;10.398;2023-05-10T15:36:16;17.50;1.00
13231;DHT22;6681;53.254;10.398;2023-05-10T15:38:43;17.50;1.00
13231;DHT22;6681;53.254;10.398;2023-05-10T15:41:09;17.60;1.00
13231;DHT22;6681;53.254;10.398;2023-05-10T15:43:35;17.60;1.00
13231;DHT22;6681;53.254;10.398;2023-05-10T15:46:01;17.50;1.00
13231;DHT22;6681;53.254;10.398;2023-05-10T15:48:26;17.40;1.00
13231;DHT22;6681;53.254;10.398;2023-05-10T15:50:52;17.50;1.00
13231;DHT22;6681;53.254;10.398;2023-05-10T15:53:18;17.50;1.00
13231;DHT22;6681;53.254;10.398;2023-05-10T15:55:43;17.50;1.00
13231;DHT22;6681;53.254;10.398;2023-05-10T15:58:09;17.50;1.00
13231;DHT22;6681;53.254;10.398;2023-05-10T16:00:35;17.40;1.00
13231;DHT22;6681;53.254;10.398;2023-05-10T16:03:01;17.40;1.00
13231;DHT22;6681;53.254;10.398;2023-05-10T16:05:27;17.30;1.00
13231;DHT22;6681;53.254;10.398;2023-05-10T16:08:03;17.10;1.00
13231;DHT22;6681;53.254;10.398;2023-05-10T16:10:31;17.10;1.00
13231;DHT22;6681;53.254;10.398;2023-05-10T16:12:57;17.00;1.00
13231;DHT22;6681;53.254;10.398;2023-05-10T16:15:23;16.90;1.00